createdAt,value
2023-01-06T09:02:14.728Z,99391.00
2023-01-06T09:04:55.254Z,99384.28
2023-01-06T09:07:22.594Z,99387.09
2023-01-06T09:09:49.970Z,99383.16
2023-01-06T09:12:17.353Z,99384.47
2023-01-06T09:14:44.755Z,99395.75
2023-01-06T09:17:12.145Z,99392.09
2023-01-06T09:19:39.505Z,99395.41
2023-01-06T09:22:07.274Z,99386.66
2023-01-06T09:24:34.673Z,99399.81
2023-01-06T09:27:02.058Z,99399.38
2023-01-06T09:29:29.445Z,99408.91
2023-01-06T09:31:56.778Z,99405.75
2023-01-06T09:34:24.160Z,99408.97
2023-01-06T09:36:51.491Z,99409.38
2023-01-06T09:39:20.120Z,99421.31
2023-01-06T09:42:36.895Z,99420.03
2023-01-06T09:45:18.261Z,99418.91
2023-01-06T09:47:56.194Z,99430.91
2023-01-06T09:50:43.973Z,99429.75
2023-01-06T09:53:30.583Z,99440.03
2023-01-06T09:56:03.095Z,99437.38
2023-01-06T09:59:10.670Z,99439.81
2023-01-06T10:01:48.758Z,99439.38
2023-01-06T10:04:30.962Z,99434.97
2023-01-06T10:08:21.518Z,99435.81
2023-01-06T10:11:59.588Z,99435.38
2023-01-06T10:15:06.617Z,99425.75
2023-01-06T10:18:41.518Z,99422.00
2023-01-06T10:22:05.611Z,99415.44
2023-01-06T10:25:02.881Z,99409.19
2023-01-06T10:27:58.504Z,99410.28
2023-01-06T10:30:45.752Z,99406.56
2023-01-06T10:33:37.476Z,99411.53
2023-01-06T10:36:17.186Z,99406.25
2023-01-06T10:38:55.685Z,99400.44
2023-01-06T10:41:45.744Z,99402.47
2023-01-06T10:44:14.075Z,99403.59
2023-01-06T10:46:45.266Z,99410.06
2023-01-06T10:49:19.401Z,99398.06
2023-01-06T10:52:00.641Z,99409.56
2023-01-06T10:54:34.200Z,99411.72
2023-01-06T10:57:17.964Z,99406.31
2023-01-06T11:00:17.415Z,99392.91
2023-01-06T11:03:14.284Z,99391.19
2023-01-06T11:05:47.312Z,99388.03
2023-01-06T11:08:17.007Z,99380.28
2023-01-06T11:10:56.323Z,99370.63
2023-01-06T11:13:37.089Z,99371.81
2023-01-06T11:16:36.952Z,99375.28
2023-01-06T11:19:21.536Z,99361.38
2023-01-06T11:21:49.076Z,99368.41
2023-01-06T11:24:26.989Z,99369.34
2023-01-06T11:27:16.190Z,99355.25
2023-01-06T11:29:43.633Z,99353.06
2023-01-06T11:32:28.625Z,99355.78
2023-01-06T11:35:06.521Z,99349.09
2023-01-06T11:37:43.389Z,99353.94
2023-01-06T11:40:34.216Z,99343.38
2023-01-06T11:43:32.652Z,99346.13
2023-01-06T11:46:09.232Z,99345.81
2023-01-06T11:49:04.003Z,99333.66
2023-01-06T11:51:48.959Z,99330.47
2023-01-06T11:54:40.536Z,99327.72
2023-01-06T11:57:55.970Z,99307.81
2023-01-06T12:01:08.231Z,99316.81
2023-01-06T12:03:44.977Z,99311.63
2023-01-06T12:06:34.568Z,99306.56
2023-01-06T12:09:40.718Z,99300.81
2023-01-06T12:12:15.834Z,99301.53
2023-01-06T12:14:43.223Z,99303.94
2023-01-06T12:17:36.051Z,99296.47
2023-01-06T12:20:33.442Z,99287.38
2023-01-06T12:23:39.834Z,99292.09
2023-01-06T12:26:25.254Z,99287.38
2023-01-06T12:28:56.273Z,99287.50
2023-01-06T12:32:05.459Z,99284.50
2023-01-06T12:34:50.325Z,99283.44
2023-01-06T12:37:53.586Z,99280.44
2023-01-06T12:40:52.632Z,99296.13
2023-01-06T12:43:24.776Z,99287.97
2023-01-06T12:46:04.932Z,99282.69
2023-01-06T12:48:59.332Z,99284.50
2023-01-06T12:51:54.556Z,99268.75
2023-01-06T12:54:36.498Z,99273.34
2023-01-06T12:58:06.362Z,99285.44
2023-01-06T13:01:01.544Z,99265.84
2023-01-06T13:04:21.184Z,99255.97
2023-01-06T13:08:28.412Z,99261.94
2023-01-06T13:11:40.250Z,99258.16
2023-01-06T13:15:11.817Z,99248.28
2023-01-06T13:18:15.204Z,99244.94
2023-01-06T13:21:00.624Z,99255.50
2023-01-06T13:23:57.124Z,99255.16
2023-01-06T13:27:18.902Z,99243.69
2023-01-06T13:30:36.191Z,99245.50
2023-01-06T13:33:23.582Z,99244.06
2023-01-06T13:36:35.096Z,99244.81
2023-01-06T13:39:30.713Z,99246.75
2023-01-06T13:42:03.981Z,99239.06
2023-01-06T13:44:37.387Z,99243.13
2023-01-06T13:47:24.471Z,99230.13
2023-01-06T13:49:53.033Z,99229.53
2023-01-06T13:52:28.915Z,99230.97
2023-01-06T13:55:32.729Z,99234.88
2023-01-06T13:58:25.764Z,99234.03
2023-01-06T14:01:20.792Z,99224.44
2023-01-06T14:03:51.576Z,99227.19
2023-01-06T14:06:24.967Z,99227.97
2023-01-06T14:08:58.574Z,99224.25
2023-01-06T14:11:38.849Z,99228.59
2023-01-06T14:14:32.885Z,99221.78
2023-01-06T14:17:00.455Z,99224.44
2023-01-06T14:19:37.986Z,99230.84
2023-01-06T14:22:26.236Z,99228.91
2023-01-06T14:25:08.647Z,99218.63
2023-01-06T14:27:48.054Z,99234.22
2023-01-06T14:30:33.758Z,99216.84
2023-01-06T14:33:38.225Z,99228.72
2023-01-06T14:36:17.539Z,99229.66
2023-01-06T14:39:02.402Z,99224.72
2023-01-06T14:41:45.556Z,99217.28
2023-01-06T14:44:44.225Z,99225.84
2023-01-06T14:47:42.671Z,99221.06
2023-01-06T14:50:47.467Z,99223.66
2023-01-06T14:53:38.875Z,99225.00
2023-01-06T14:56:11.363Z,99227.59
2023-01-06T14:58:38.735Z,99219.47
2023-01-06T15:01:30.876Z,99223.31
2023-01-06T15:04:03.169Z,99231.59
2023-01-06T15:06:32.349Z,99226.59
2023-01-06T15:09:21.047Z,99237.44
2023-01-06T15:11:49.351Z,99227.41
2023-01-06T15:14:35.291Z,99231.13
2023-01-06T15:17:06.796Z,99230.16
2023-01-06T15:19:35.745Z,99234.47
2023-01-06T15:22:08.750Z,99237.09
2023-01-06T15:24:42.894Z,99235.34
2023-01-06T15:27:16.560Z,99233.25
2023-01-06T15:29:57.251Z,99234.81
2023-01-06T15:32:28.107Z,99229.78
2023-01-06T15:34:58.107Z,99230.03
2023-01-06T15:37:34.750Z,99233.94
2023-01-06T15:40:05.212Z,99230.66
2023-01-06T15:42:33.037Z,99232.72
2023-01-06T15:45:06.746Z,99226.69
2023-01-06T15:47:45.813Z,99235.44
2023-01-06T15:50:34.200Z,99233.34
2023-01-06T15:53:15.960Z,99240.56
2023-01-06T15:55:49.081Z,99243.50
2023-01-06T15:58:30.507Z,99243.81
2023-01-06T16:01:12.014Z,99250.53
2023-01-06T16:03:40.100Z,99249.56
2023-01-06T16:06:15.460Z,99247.00
2023-01-06T16:08:44.189Z,99246.56
2023-01-06T16:11:17.339Z,99254.63
2023-01-06T16:13:59.036Z,99252.88
2023-01-06T16:16:37.922Z,99250.19
2023-01-06T16:19:28.145Z,99249.34
